Time;durP1;ratioP1;P1;durP2;ratioP2;P2;SDS_P1;SDS_P2;PMS_P1;PMS_P2;Temp;Humidity;BMP_temperature;BMP_pressure;BME280_temperature;BME280_humidity;BME280_pressure;Samples;Min_cycle;Max_cycle;Signal;HPM_P1;HPM_P2
2022/09/18 00:01:19;;;;;;;17.52;12.90;;;;;;;12.09;100.00;98645.71;1715209;83;21060;-67
2022/09/18 00:03:46;;;;;;;21.10;13.62;;;;;;;12.09;100.00;98647.03;1715212;83;21076;-68
2022/09/18 00:06:19;;;;;;;20.10;12.58;;;;;;;12.08;100.00;98644.03;1715263;83;21117;-67
2022/09/18 00:08:48;;;;;;;16.07;12.65;;;;;;;12.09;100.00;98641.75;1715154;83;21184;-67
2022/09/18 00:11:15;;;;;;;17.80;12.60;;;;;;;12.10;100.00;98634.20;1715187;83;21128;-69
2022/09/18 00:13:43;;;;;;;17.67;12.45;;;;;;;12.11;100.00;98631.95;1715046;83;21040;-67
2022/09/18 00:16:12;;;;;;;18.27;12.18;;;;;;;12.09;100.00;98619.33;1715544;83;21050;-66
2022/09/18 00:18:39;;;;;;;16.07;12.03;;;;;;;12.06;100.00;98622.18;1715455;83;21066;-68
2022/09/18 00:21:14;;;;;;;18.05;12.30;;;;;;;12.06;100.00;98627.45;1715515;83;21261;-68
2022/09/18 00:23:40;;;;;;;16.85;12.15;;;;;;;12.06;100.00;98631.42;1715348;83;21721;-68
2022/09/18 00:26:08;;;;;;;15.63;11.55;;;;;;;12.04;100.00;98628.03;1715462;83;21061;-68
2022/09/18 00:28:35;;;;;;;18.07;12.15;;;;;;;12.08;100.00;98638.76;1715582;83;21072;-67
2022/09/18 00:31:08;;;;;;;16.75;12.40;;;;;;;12.07;100.00;98637.89;1715400;83;21162;-68
2022/09/18 00:33:36;;;;;;;17.60;12.50;;;;;;;12.06;100.00;98631.42;1715441;83;21216;-69
2022/09/18 00:36:04;;;;;;;14.15;11.83;;;;;;;12.08;100.00;98636.13;1715108;83;21113;-67
2022/09/18 00:38:31;;;;;;;17.35;11.68;;;;;;;12.06;100.00;98619.55;1715450;83;21093;-68
2022/09/18 00:41:02;;;;;;;14.30;11.15;;;;;;;12.06;100.00;98618.22;1715037;83;21101;-68
2022/09/18 00:43:31;;;;;;;;;;;;;;;12.05;100.00;98613.87;1718100;82;21092;-67
2022/09/18 00:46:26;;;;;;;15.30;11.80;;;;;;;12.04;100.00;98610.88;1715213;83;21171;-66
2022/09/18 00:49:14;;;;;;;14.65;11.65;;;;;;;12.02;100.00;98612.77;1715210;83;21045;-68
2022/09/18 00:51:40;;;;;;;14.03;11.97;;;;;;;12.00;100.00;98604.11;1715338;83;21010;-68
2022/09/18 00:54:34;;;;;;;16.97;12.45;;;;;;;11.95;100.00;98601.30;1717569;82;21097;-67
2022/09/18 00:57:08;;;;;;;15.28;11.38;;;;;;;11.95;100.00;98589.91;1690346;84;21125;-67
2022/09/18 00:59:36;;;;;;;14.85;11.57;;;;;;;11.94;100.00;98585.12;1711860;82;21204;-67
2022/09/18 01:02:03;;;;;;;14.78;12.25;;;;;;;11.93;100.00;98582.09;1744820;82;21073;-68
2022/09/18 01:04:29;;;;;;;18.05;12.90;;;;;;;11.92;100.00;98564.59;1745163;82;21097;-68
2022/09/18 01:07:32;;;;;;;13.72;12.20;;;;;;;11.90;100.00;98559.88;1744801;82;21080;-66
2022/09/18 01:10:25;;;;;;;15.83;12.98;;;;;;;11.91;100.00;98563.36;1744993;82;21645;-68
2022/09/18 01:12:55;;;;;;;16.07;12.20;;;;;;;11.90;100.00;98557.25;1744822;82;21214;-67
2022/09/18 01:15:36;;;;;;;13.75;11.65;;;;;;;11.91;100.00;98556.28;1745019;82;21523;-67
2022/09/18 01:18:10;;;;;;;;;;;;;;;11.92;100.00;98557.99;1747345;82;21093;-67
2022/09/18 01:20:58;;;;;;;17.77;13.05;;;;;;;11.97;100.00;98562.95;1744950;82;20143;-68
2022/09/18 01:23:53;;;;;;;14.83;12.73;;;;;;;11.97;100.00;98556.36;1732454;82;21062;-66
2022/09/18 01:26:58;;;;;;;17.23;13.18;;;;;;;11.95;100.00;98555.13;1745166;82;21253;-68
2022/09/18 01:29:30;;;;;;;17.70;11.93;;;;;;;11.96;100.00;98543.66;1744777;82;21582;-67
2022/09/18 01:32:08;;;;;;;14.03;11.93;;;;;;;11.96;100.00;98531.78;1745020;82;21713;-68
2022/09/18 01:34:59;;;;;;;16.07;12.88;;;;;;;11.95;100.00;98534.52;1745114;82;21131;-68
2022/09/18 01:37:49;;;;;;;16.20;12.70;;;;;;;11.95;100.00;98531.88;1745035;82;21081;-70
2022/09/18 01:40:35;;;;;;;16.12;12.70;;;;;;;11.96;100.00;98525.19;1744608;82;21269;-67
2022/09/18 01:43:05;;;;;;;15.38;12.20;;;;;;;11.96;100.00;98514.63;1744145;82;21628;-69
2022/09/18 01:45:34;;;;;;;15.60;12.82;;;;;;;11.98;100.00;98507.08;1745362;82;21021;-68
2022/09/18 01:48:07;;;;;;;16.02;12.80;;;;;;;11.98;100.00;98507.91;1744862;82;21101;-68
2022/09/18 01:50:40;;;;;;;14.40;12.33;;;;;;;11.96;100.00;98502.77;1745103;82;21085;-67
2022/09/18 01:53:28;;;;;;;15.58;12.05;;;;;;;11.97;100.00;98497.00;1745181;82;21199;-67
2022/09/18 01:56:00;;;;;;;20.35;14.68;;;;;;;11.96;100.00;98492.21;1744797;82;21586;-69
2022/09/18 01:58:26;;;;;;;18.98;14.30;;;;;;;11.99;100.00;98491.63;1744793;81;21106;-69
2022/09/18 02:00:56;;;;;;;21.68;13.83;;;;;;;11.99;100.00;98487.67;1745151;82;21592;-67
2022/09/18 02:03:34;;;;;;;20.08;14.70;;;;;;;11.97;100.00;98475.90;1724108;82;21093;-67
2022/09/18 02:06:08;;;;;;;17.32;13.30;;;;;;;11.99;100.00;98472.68;1745358;82;21195;-67
2022/09/18 02:08:48;;;;;;;21.27;14.18;;;;;;;11.99;100.00;98466.09;1744972;82;21045;-67
2022/09/18 02:11:17;;;;;;;;;;;;;;;11.99;100.00;98459.97;1747668;82;21057;-67
2022/09/18 02:14:07;;;;;;;17.42;12.73;;;;;;;11.97;100.00;98467.98;1744781;82;20178;-67
2022/09/18 02:16:43;;;;;;;23.25;15.03;;;;;;;11.94;100.00;98456.34;1742446;82;21049;-66
2022/09/18 02:19:22;;;;;;;20.37;14.28;;;;;;;11.94;100.00;98453.22;1744033;82;21311;-68
2022/09/18 02:21:48;;;;;;;21.00;15.48;;;;;;;11.93;100.00;98434.36;1723640;82;21077;-65
2022/09/18 02:24:18;;;;;;;33.70;19.80;;;;;;;11.92;100.00;98428.73;1744934;82;21533;-67
2022/09/18 02:26:45;;;;;;;33.18;19.92;;;;;;;11.92;100.00;98438.45;1745171;82;21037;-66
2022/09/18 02:29:13;;;;;;;24.15;16.65;;;;;;;11.93;100.00;98447.55;1744875;82;21109;-67
2022/09/18 02:31:40;;;;;;;23.50;16.90;;;;;;;11.94;100.00;98446.63;1744351;82;21145;-67
2022/09/18 02:34:08;;;;;;;26.33;16.90;;;;;;;11.96;100.00;98447.36;1745051;82;21084;-67
2022/09/18 02:36:43;;;;;;;22.73;14.73;;;;;;;11.97;100.00;98445.56;1744875;82;21557;-68
2022/09/18 02:39:29;;;;;;;23.07;14.85;;;;;;;11.98;100.00;98449.03;1744933;82;21085;-67
2022/09/18 02:42:25;;;;;;;21.35;14.73;;;;;;;11.99;100.00;98437.06;1744260;82;21054;-68
2022/09/18 02:45:06;;;;;;;16.87;13.75;;;;;;;12.01;100.00;98434.30;1744887;82;21221;-67
2022/09/18 02:48:11;;;;;;;18.05;12.53;;;;;;;11.99;100.00;98429.64;1744813;82;21125;-66
2022/09/18 02:51:25;;;;;;;21.25;14.63;;;;;;;11.94;100.00;98426.83;1657727;84;21168;-66
2022/09/18 02:54:06;;;;;;;16.23;12.20;;;;;;;11.94;100.00;98420.24;1744869;82;21041;-68
2022/09/18 02:56:50;;;;;;;24.18;18.27;;;;;;;11.92;100.00;98406.31;1715050;83;21045;-67
2022/09/18 02:59:37;;;;;;;23.98;14.60;;;;;;;11.91;100.00;98391.90;1715050;83;21119;-67
2022/09/18 03:02:05;;;;;;;20.37;13.50;;;;;;;11.90;100.00;98383.15;1740225;82;21005;-68
2022/09/18 03:04:34;;;;;;;21.05;13.43;;;;;;;11.90;100.00;98371.77;1744974;82;21482;-67
2022/09/18 03:07:05;;;;;;;15.83;12.33;;;;;;;11.88;100.00;98371.86;1744897;82;21538;-67
2022/09/18 03:11:29;;;;;;;17.30;13.22;;;;;;;11.72;100.00;98367.27;1796546;79;28083;-67
2022/09/18 03:13:55;;;;;;;15.72;12.63;;;;;;;11.67;100.00;98361.47;1756371;81;21005;-67
2022/09/18 03:16:24;;;;;;;18.30;13.35;;;;;;;11.69;100.00;98352.98;1756185;81;21134;-68
2022/09/18 03:18:52;;;;;;;17.25;13.45;;;;;;;11.68;100.00;98349.48;1756431;81;21053;-69
2022/09/18 03:21:23;;;;;;;16.42;12.23;;;;;;;11.66;100.00;98344.78;1756382;81;21522;-67
2022/09/18 03:23:50;;;;;;;15.45;12.30;;;;;;;11.70;100.00;98336.20;1756502;81;21061;-68
2022/09/18 03:26:19;;;;;;;18.80;13.18;;;;;;;11.72;100.00;98343.53;1756092;81;21053;-67
2022/09/18 03:28:45;;;;;;;15.23;12.13;;;;;;;11.73;100.00;98338.61;1756419;81;21156;-67
2022/09/18 03:31:13;;;;;;;14.43;11.18;;;;;;;11.72;100.00;98323.75;1756364;81;21580;-67
2022/09/18 03:33:40;;;;;;;16.87;11.88;;;;;;;11.73;100.00;98324.11;1756395;81;21578;-67
2022/09/18 03:36:09;;;;;;;15.25;11.85;;;;;;;11.73;100.00;98324.97;1756465;81;21097;-67
2022/09/18 03:38:37;;;;;;;15.80;12.33;;;;;;;11.73;100.00;98317.52;1756249;81;21100;-67
2022/09/18 03:41:06;;;;;;;16.30;12.60;;;;;;;11.73;100.00;98316.20;1756151;81;21234;-67
2022/09/18 03:43:34;;;;;;;16.45;12.65;;;;;;;11.71;100.00;98315.45;1756130;81;21081;-68
2022/09/18 03:46:01;;;;;;;18.70;12.53;;;;;;;11.72;100.00;98309.25;1754788;81;20991;-68
2022/09/18 03:48:28;;;;;;;14.03;10.63;;;;;;;11.68;100.00;98303.81;1747890;82;21560;-67
2022/09/18 03:50:55;;;;;;;13.18;10.65;;;;;;;11.66;100.00;98303.91;1747931;82;21046;-68
2022/09/18 03:53:22;;;;;;;15.83;11.15;;;;;;;11.64;100.00;98300.57;1748113;82;21657;-66
2022/09/18 03:56:06;;;;;;;12.40;10.05;;;;;;;11.64;100.00;98297.06;1748016;82;20990;-67
2022/09/18 03:58:52;;;;;;;14.18;9.50;;;;;;;11.64;100.00;98290.48;1700788;84;21085;-68
2022/09/18 04:01:32;;;;;;;12.13;9.03;;;;;;;11.61;100.00;98280.16;1737105;82;21026;-68
2022/09/18 04:04:01;;;;;;;9.45;8.00;;;;;;;11.62;100.00;98285.78;1697311;82;21029;-67
2022/09/18 04:06:39;;;;;;;10.30;8.18;;;;;;;11.61;100.00;98286.75;1745085;82;21841;-67
2022/09/18 04:09:07;;;;;;;10.78;9.08;;;;;;;11.60;100.00;98285.08;1745580;82;21034;-67
2022/09/18 04:11:36;;;;;;;8.68;7.87;;;;;;;11.60;100.00;98278.48;1735656;82;21171;-68
2022/09/18 04:14:03;;;;;;;8.70;7.08;;;;;;;11.59;100.00;98278.10;1734670;82;21046;-68
2022/09/18 04:16:29;;;;;;;7.87;7.08;;;;;;;11.58;100.00;98273.80;1734807;82;21153;-67
2022/09/18 04:18:56;;;;;;;9.08;7.10;;;;;;;11.55;100.00;98272.22;1734683;82;21230;-67
2022/09/18 04:21:23;;;;;;;7.83;6.92;;;;;;;11.55;100.00;98264.31;1734832;82;21054;-68
2022/09/18 04:23:50;;;;;;;7.87;6.35;;;;;;;11.54;100.00;98260.81;1734013;82;21102;-67
2022/09/18 04:26:17;;;;;;;7.60;6.20;;;;;;;11.53;100.00;98253.86;1734143;82;21030;-67
2022/09/18 04:28:46;;;;;;;7.97;6.58;;;;;;;11.53;100.00;98238.05;1733864;82;21003;-66
2022/09/18 04:31:14;;;;;;;6.65;5.92;;;;;;;11.55;100.00;98231.36;1734476;82;21046;-69
2022/09/18 04:33:40;;;;;;;6.40;5.67;;;;;;;11.57;100.00;98224.64;1713109;82;21542;-67
2022/09/18 04:36:10;;;;;;;6.62;5.55;;;;;;;11.57;100.00;98216.25;1734221;82;21109;-67
2022/09/18 04:38:38;;;;;;;6.62;5.65;;;;;;;11.57;100.00;98208.82;1734105;82;21629;-68
2022/09/18 04:41:05;;;;;;;5.90;5.30;;;;;;;11.57;100.00;98200.91;1734430;82;21251;-65
2022/09/18 04:43:32;;;;;;;6.30;5.70;;;;;;;11.58;100.00;98198.17;1734024;82;21132;-68
2022/09/18 04:45:59;;;;;;;6.35;5.25;;;;;;;11.59;100.00;98194.57;1734108;82;21060;-67
2022/09/18 04:48:25;;;;;;;9.28;5.65;;;;;;;11.57;100.00;98189.05;1734565;82;21637;-67
2022/09/18 04:50:52;;;;;;;8.33;5.33;;;;;;;11.57;100.00;98191.20;1734117;82;21007;-68
2022/09/18 04:53:21;;;;;;;6.35;5.40;;;;;;;11.54;100.00;98189.63;1733983;82;21518;-67
2022/09/18 04:55:47;;;;;;;7.72;6.12;;;;;;;11.53;100.00;98190.59;1711980;82;21229;-68
2022/09/18 04:58:17;;;;;;;8.03;6.20;;;;;;;11.52;100.00;98185.42;1704814;84;21086;-67
2022/09/18 05:00:49;;;;;;;7.85;5.80;;;;;;;11.51;100.00;98181.95;1704616;84;21041;-68
2022/09/18 05:03:18;;;;;;;9.73;6.90;;;;;;;11.52;100.00;98170.44;1705000;84;21074;-67
2022/09/18 05:05:45;;;;;;;6.92;6.22;;;;;;;11.51;100.00;98176.69;1704709;83;21109;-69
2022/09/18 05:08:12;;;;;;;9.78;6.87;;;;;;;11.51;100.00;98170.09;1704644;84;21213;-67
2022/09/18 05:10:39;;;;;;;7.60;6.75;;;;;;;11.53;100.00;98164.23;1709094;83;21045;-67
2022/09/18 05:13:05;;;;;;;8.03;7.20;;;;;;;11.53;100.00;98160.28;1694007;83;21103;-68
2022/09/18 05:15:32;;;;;;;11.43;7.83;;;;;;;11.53;100.00;98166.88;1718736;82;20994;-67
2022/09/18 05:18:02;;;;;;;11.08;8.35;;;;;;;11.54;100.00;98167.22;1718286;83;21100;-67
2022/09/18 05:20:29;;;;;;;10.32;8.15;;;;;;;11.49;100.00;98150.91;1718673;83;21861;-68
2022/09/18 05:22:58;;;;;;;13.10;9.28;;;;;;;11.55;100.00;98155.74;1721324;82;21057;-69
2022/09/18 05:25:27;;;;;;;10.75;9.05;;;;;;;11.54;100.00;98154.05;1748475;82;21497;-68
2022/09/18 05:27:58;;;;;;;9.78;8.48;;;;;;;11.54;100.00;98147.94;1747871;82;21018;-68
2022/09/18 05:30:27;;;;;;;10.40;8.88;;;;;;;11.53;100.00;98137.05;1747352;82;21053;-69
2022/09/18 05:32:59;;;;;;;15.32;10.40;;;;;;;11.52;100.00;98134.86;1720532;82;21295;-67
2022/09/18 05:35:27;;;;;;;12.68;9.95;;;;;;;11.51;100.00;98123.96;1748359;82;21065;-68
2022/09/18 05:37:55;;;;;;;12.13;10.38;;;;;;;11.50;100.00;98113.52;1747454;82;21057;-68
2022/09/18 05:40:25;;;;;;;14.20;11.28;;;;;;;11.51;100.00;98123.96;1719896;82;21013;-69
2022/09/18 05:42:53;;;;;;;15.63;11.03;;;;;;;11.51;100.00;98129.23;1748178;82;21017;-68
2022/09/18 05:45:21;;;;;;;14.43;12.33;;;;;;;11.51;100.00;98123.96;1747906;82;21077;-67
2022/09/18 05:48:04;;;;;;;18.40;15.60;;;;;;;11.52;100.00;98123.00;1748050;82;21014;-68
2022/09/18 05:50:33;;;;;;;17.55;13.60;;;;;;;11.51;100.00;98112.10;1747352;82;21010;-69
2022/09/18 05:53:09;;;;;;;18.40;13.35;;;;;;;11.55;100.00;98114.88;1720435;82;21582;-69
2022/09/18 05:55:43;;;;;;;17.82;12.18;;;;;;;11.57;100.00;98108.64;1725173;82;21101;-69
2022/09/18 05:58:16;;;;;;;17.82;12.20;;;;;;;11.58;100.00;98095.84;1718289;83;21124;-69
2022/09/18 06:00:45;;;;;;;14.38;11.60;;;;;;;11.62;100.00;98086.73;1718048;83;21601;-67
2022/09/18 06:03:14;;;;;;;12.65;10.80;;;;;;;11.63;100.00;98075.25;1718349;83;21127;-68
2022/09/18 06:05:43;;;;;;;15.70;11.50;;;;;;;11.66;100.00;98081.60;1718366;83;21156;-68
2022/09/18 06:08:11;;;;;;;18.55;11.93;;;;;;;11.66;100.00;98084.23;1718346;83;21045;-69
2022/09/18 06:10:40;;;;;;;16.32;11.88;;;;;;;11.67;100.00;98084.13;1716559;83;21614;-69
2022/09/18 06:13:17;;;;;;;15.75;10.63;;;;;;;11.65;100.00;98073.34;1707322;84;21069;-69
2022/09/18 06:15:47;;;;;;;17.35;12.00;;;;;;;11.71;100.00;98075.50;1707341;83;21121;-69
2022/09/18 06:18:17;;;;;;;17.57;11.90;;;;;;;11.73;100.00;98064.37;1707516;83;21022;-69
2022/09/18 06:20:53;;;;;;;14.28;10.60;;;;;;;11.76;100.00;98064.99;1707510;84;21057;-70
2022/09/18 06:23:22;;;;;;;16.42;11.48;;;;;;;11.78;100.00;98059.61;1707711;84;21082;-69
2022/09/18 06:26:00;;;;;;;17.98;11.90;;;;;;;11.79;100.00;98061.28;1706766;83;21120;-69
2022/09/18 06:28:26;;;;;;;15.10;11.08;;;;;;;11.78;100.00;98060.94;1707549;83;21054;-69
2022/09/18 06:30:53;;;;;;;15.93;11.97;;;;;;;11.80;100.00;98058.16;1707112;83;21077;-69
2022/09/18 06:33:21;;;;;;;15.32;12.03;;;;;;;11.81;100.00;98047.99;1707408;83;21144;-69
2022/09/18 06:35:48;;;;;;;16.17;12.25;;;;;;;11.84;100.00;98038.03;1706987;83;21882;-69
2022/09/18 06:38:16;;;;;;;16.82;12.05;;;;;;;11.88;100.00;98028.97;1706880;83;21092;-67
2022/09/18 06:40:52;;;;;;;18.02;12.90;;;;;;;11.89;100.00;98020.13;1706971;83;21085;-68
2022/09/18 06:43:23;;;;;;;14.75;11.70;;;;;;;11.93;100.00;98024.19;1706612;83;21069;-67
2022/09/18 06:46:00;;;;;;;15.43;12.43;;;;;;;11.98;100.00;98034.87;1704528;83;21034;-68
2022/09/18 06:48:30;;;;;;;17.95;12.65;;;;;;;12.00;100.00;98026.36;1707232;83;21132;-67
2022/09/18 06:50:58;;;;;;;21.37;12.75;;;;;;;12.01;100.00;98021.44;1707026;83;21688;-68
2022/09/18 06:53:26;;;;;;;14.73;11.95;;;;;;;12.02;100.00;98015.22;1707095;83;21053;-68
2022/09/18 06:55:58;;;;;;;15.90;11.57;;;;;;;12.02;100.00;98010.77;1728603;82;21523;-68
2022/09/18 06:58:25;;;;;;;15.18;10.72;;;;;;;12.04;100.00;98009.34;1734252;82;21333;-69
2022/09/18 07:00:53;;;;;;;13.75;11.50;;;;;;;12.06;100.00;98012.72;1734049;82;21225;-70
2022/09/18 07:03:21;;;;;;;15.65;11.50;;;;;;;12.06;100.00;98008.27;1733260;82;21058;-68
2022/09/18 07:05:54;;;;;;;12.43;9.98;;;;;;;12.06;100.00;98002.16;1733998;82;21085;-69
2022/09/18 07:08:23;;;;;;;17.98;11.03;;;;;;;12.05;100.00;98013.66;1732960;82;21523;-69
2022/09/18 07:10:52;;;;;;;14.33;10.88;;;;;;;12.05;100.00;98001.78;1733985;82;20986;-69
2022/09/18 07:13:18;;;;;;;11.38;8.65;;;;;;;12.04;100.00;98010.19;1733961;82;21826;-69
2022/09/18 07:15:46;;;;;;;12.58;9.60;;;;;;;12.07;100.00;98017.02;1734064;82;21077;-68
2022/09/18 07:18:13;;;;;;;15.95;10.72;;;;;;;12.09;100.00;98021.70;1734068;82;21074;-68
2022/09/18 07:20:40;;;;;;;14.45;10.75;;;;;;;12.10;100.00;98019.41;1734300;82;21034;-68
2022/09/18 07:23:07;;;;;;;17.80;11.68;;;;;;;12.11;100.00;98031.66;1733840;82;21050;-67
2022/09/18 07:25:40;;;;;;;15.35;9.50;;;;;;;12.11;100.00;98021.11;1734014;81;21252;-68
2022/09/18 07:28:09;;;;;;;15.63;12.30;;;;;;;12.11;100.00;98002.64;1733896;82;21046;-66
2022/09/18 07:30:38;;;;;;;13.62;10.60;;;;;;;12.16;100.00;97987.28;1713222;82;21097;-68
2022/09/18 07:33:06;;;;;;;20.27;10.13;;;;;;;12.16;100.00;97987.28;1734384;82;20991;-68
2022/09/18 07:35:35;;;;;;;13.60;9.70;;;;;;;12.20;100.00;97982.14;1733400;82;21077;-67
2022/09/18 07:38:08;;;;;;;12.45;10.43;;;;;;;12.23;100.00;97971.33;1734333;82;21769;-66
2022/09/18 07:40:51;;;;;;;17.10;10.38;;;;;;;12.26;100.00;97961.88;1732559;82;21035;-68
2022/09/18 07:43:32;;;;;;;;;;;;;;;12.27;100.00;97960.91;1737021;82;20991;-68
2022/09/18 07:46:01;;;;;;;10.95;8.78;;;;;;;12.29;100.00;97961.62;1734133;82;20535;-67
2022/09/18 07:48:29;;;;;;;13.68;10.03;;;;;;;12.27;100.00;97941.11;1734752;81;21091;-67
2022/09/18 07:50:58;;;;;;;9.65;8.38;;;;;;;12.30;100.00;97941.34;1733506;82;22123;-66
2022/09/18 07:53:25;;;;;;;14.13;9.88;;;;;;;12.32;100.00;97949.98;1734350;82;21058;-67
2022/09/18 07:55:54;;;;;;;10.43;8.90;;;;;;;12.35;100.00;97940.03;1712860;82;21053;-68
2022/09/18 07:58:23;;;;;;;10.33;8.20;;;;;;;12.35;100.00;97932.12;1707692;84;21042;-68
2022/09/18 08:00:54;;;;;;;12.60;8.95;;;;;;;12.37;100.00;97928.84;1706431;83;21750;-69
2022/09/18 08:03:24;;;;;;;12.43;8.13;;;;;;;12.42;100.00;97932.94;1707663;83;21160;-67
2022/09/18 08:05:53;;;;;;;9.55;7.97;;;;;;;12.46;100.00;97936.52;1705921;83;21053;-68
2022/09/18 08:08:20;;;;;;;10.48;7.90;;;;;;;12.48;100.00;97929.33;1707279;83;21145;-68
2022/09/18 08:10:48;;;;;;;8.30;7.10;;;;;;;12.49;100.00;97911.67;1703761;83;21105;-69
2022/09/18 08:13:33;;;;;;;10.10;7.97;;;;;;;12.52;100.00;97912.28;1707479;84;21042;-68
2022/09/18 08:16:17;;;;;;;11.63;9.40;;;;;;;12.55;100.00;97921.76;1707549;84;21118;-68
2022/09/18 08:18:56;;;;;;;11.65;8.83;;;;;;;12.56;100.00;97931.34;1706714;83;21084;-69
2022/09/18 08:21:41;;;;;;;11.63;8.65;;;;;;;12.56;100.00;97938.80;1707409;84;21045;-67
2022/09/18 08:24:10;;;;;;;7.33;6.47;;;;;;;12.56;100.00;97936.63;1707350;83;21229;-68
2022/09/18 08:26:37;;;;;;;10.98;8.90;;;;;;;12.58;100.00;97932.06;1707569;83;21105;-69
2022/09/18 08:29:07;;;;;;;8.78;7.80;;;;;;;12.59;100.00;97929.80;1707608;83;21308;-67
2022/09/18 08:31:35;;;;;;;13.18;8.43;;;;;;;12.62;100.00;97925.58;1707412;84;21640;-68
2022/09/18 08:34:03;;;;;;;9.83;7.35;;;;;;;12.64;100.00;97926.30;1707438;83;21100;-67
2022/09/18 08:36:32;;;;;;;11.55;8.85;;;;;;;12.65;100.00;97920.04;1707634;84;21089;-68
2022/09/18 08:39:00;;;;;;;11.88;8.65;;;;;;;12.68;100.00;97924.27;1707135;83;21140;-69
2022/09/18 08:41:53;;;;;;;8.18;6.55;;;;;;;12.73;100.00;97925.55;1704884;83;21770;-68
2022/09/18 08:44:32;;;;;;;8.98;7.62;;;;;;;12.76;100.00;97924.46;1707380;83;21061;-69
2022/09/18 08:47:22;;;;;;;11.05;8.35;;;;;;;12.82;100.00;97925.78;1707524;84;21072;-69
2022/09/18 08:50:02;;;;;;;10.18;7.62;;;;;;;12.84;100.00;97921.19;1707355;84;21072;-67
2022/09/18 08:52:32;;;;;;;8.85;7.28;;;;;;;12.87;100.00;97909.08;1706063;84;21069;-67
2022/09/18 08:55:14;;;;;;;8.43;7.10;;;;;;;12.93;100.00;97904.59;1718146;82;21139;-68
2022/09/18 08:58:12;;;;;;;8.95;7.15;;;;;;;12.98;100.00;97902.43;1635316;86;21072;-67
2022/09/18 09:00:44;;;;;;;9.68;7.83;;;;;;;13.05;100.00;97901.45;1734197;82;21578;-69
2022/09/18 09:03:50;;;;;;;13.70;7.53;;;;;;;13.09;100.00;97898.88;1721368;82;21044;-67
2022/09/18 09:06:54;;;;;;;11.57;7.50;;;;;;;13.13;100.00;97895.02;1734445;82;21028;-69
2022/09/18 09:09:38;;;;;;;12.25;8.05;;;;;;;13.14;100.00;97889.63;1733823;82;21219;-68
2022/09/18 09:12:41;;;;;;;10.10;7.55;;;;;;;13.20;100.00;97878.55;1738961;82;21100;-68
2022/09/18 09:15:28;;;;;;;;;;;;;;;13.28;100.00;97873.13;1750998;81;21041;-68
2022/09/18 09:18:16;;;;;;;16.40;9.38;;;;;;;13.34;100.00;97871.27;1721642;82;20201;-69
2022/09/18 09:20:54;;;;;;;9.88;6.83;;;;;;;13.40;100.00;97868.13;1748031;82;21033;-67
2022/09/18 09:23:49;;;;;;;11.60;8.48;;;;;;;13.51;100.00;97856.16;1747565;82;21183;-69
2022/09/18 09:26:20;;;;;;;27.05;17.52;;;;;;;13.61;100.00;97856.20;1746654;82;21128;-69
2022/09/18 09:29:17;;;;;;;13.53;9.18;;;;;;;13.64;100.00;97862.08;1722893;82;21035;-67
2022/09/18 09:32:05;;;;;;;12.70;8.70;;;;;;;13.73;100.00;97861.75;1702326;82;21025;-68
2022/09/18 09:34:47;;;;;;;9.73;8.10;;;;;;;13.83;100.00;97848.59;1744225;82;22101;-68
2022/09/18 09:37:22;;;;;;;6.85;5.70;;;;;;;13.94;100.00;97850.28;1744544;82;21136;-69
2022/09/18 09:39:59;;;;;;;4.90;4.12;;;;;;;14.05;100.00;97851.50;1748359;81;21042;-68
2022/09/18 09:42:40;;;;;;;5.95;5.00;;;;;;;14.09;100.00;97850.77;1747910;81;21720;-69
2022/09/18 09:45:18;;;;;;;4.80;4.35;;;;;;;14.13;100.00;97853.01;1748381;82;21025;-68
2022/09/18 09:48:09;;;;;;;6.75;5.40;;;;;;;14.20;100.00;97847.52;1748103;81;21581;-69
2022/09/18 09:50:51;;;;;;;6.78;4.95;;;;;;;14.24;100.00;97856.02;1748030;82;21322;-69
2022/09/18 09:53:18;;;;;;;5.60;4.37;;;;;;;14.26;100.00;97850.96;1748014;82;21077;-69
2022/09/18 09:56:21;;;;;;;6.53;5.33;;;;;;;14.26;100.00;97854.94;1726591;82;22165;-68
2022/09/18 09:59:27;;;;;;;5.58;4.70;;;;;;;14.29;100.00;97859.12;1718251;83;21094;-68
2022/09/18 10:02:28;;;;;;;6.50;5.70;;;;;;;14.30;100.00;97852.83;1716868;83;21080;-68
2022/09/18 10:05:13;;;;;;;5.95;5.17;;;;;;;14.35;100.00;97858.55;1698694;82;21489;-68
2022/09/18 10:07:53;;;;;;;6.53;5.55;;;;;;;14.38;100.00;97864.92;1747907;82;21088;-68
2022/09/18 10:10:46;;;;;;;6.78;5.25;;;;;;;14.44;100.00;97861.70;1740440;82;21049;-67
2022/09/18 10:13:19;;;;;;;6.75;5.62;;;;;;;14.54;100.00;97865.75;1738460;81;21010;-68
2022/09/18 10:16:04;;;;;;;7.90;6.20;;;;;;;14.56;100.00;97864.27;1734193;82;21078;-67
2022/09/18 10:18:35;;;;;;;7.67;6.87;;;;;;;14.60;100.00;97865.67;1734022;82;21243;-69
2022/09/18 10:21:17;;;;;;;8.45;6.33;;;;;;;14.59;100.00;97856.07;1733953;82;21051;-68
2022/09/18 10:23:54;;;;;;;8.00;6.45;;;;;;;14.61;100.00;97858.09;1734093;82;21435;-67
2022/09/18 10:26:31;;;;;;;11.10;8.15;;;;;;;14.64;100.00;97851.19;1734494;82;21054;-69
2022/09/18 10:29:01;;;;;;;9.98;8.38;;;;;;;14.70;100.00;97851.97;1733987;82;21566;-70
2022/09/18 10:31:56;;;;;;;10.58;9.13;;;;;;;14.68;100.00;97852.59;1734487;82;21069;-70
2022/09/18 10:34:34;;;;;;;10.15;8.25;;;;;;;14.66;100.00;97851.40;1734090;82;21065;-70
2022/09/18 10:37:01;;;;;;;11.03;8.90;;;;;;;14.70;100.00;97846.67;1734456;82;21018;-69
2022/09/18 10:39:30;;;;;;;12.43;9.43;;;;;;;14.77;100.00;97853.09;1734160;82;21026;-68
2022/09/18 10:42:02;;;;;;;13.65;11.78;;;;;;;14.80;100.00;97848.83;1734226;82;21062;-69
2022/09/18 10:44:36;;;;;;;11.57;9.50;;;;;;;14.81;100.00;97846.52;1734268;82;21196;-67
2022/09/18 10:47:09;;;;;;;13.75;10.95;;;;;;;14.81;100.00;97853.13;1734003;81;21058;-68
2022/09/18 10:49:57;;;;;;;13.00;10.93;;;;;;;14.86;100.00;97852.72;1734322;82;20999;-69
2022/09/18 10:52:34;;;;;;;28.12;21.17;;;;;;;14.84;100.00;97854.20;1699404;82;21050;-68
2022/09/18 10:55:25;;;;;;;27.67;19.70;;;;;;;14.74;100.00;97856.48;1734007;82;21106;-69
2022/09/18 10:57:59;;;;;;;32.65;22.75;;;;;;;14.62;100.00;97843.87;1733973;82;21723;-68
2022/09/18 11:00:32;;;;;;;23.60;17.35;;;;;;;14.52;100.00;97843.00;1713053;82;21105;-69
2022/09/18 11:03:17;;;;;;;29.42;21.90;;;;;;;14.46;100.00;97841.72;1733824;82;21078;-69
2022/09/18 11:05:56;;;;;;;23.20;16.73;;;;;;;14.43;100.00;97840.68;1734115;82;21097;-68
2022/09/18 11:08:30;;;;;;;25.40;18.90;;;;;;;14.40;100.00;97831.20;1734149;82;21530;-68
2022/09/18 11:11:02;;;;;;;21.68;16.25;;;;;;;14.41;100.00;97835.51;1733800;82;21400;-69
2022/09/18 11:13:30;;;;;;;28.07;20.15;;;;;;;14.43;100.00;97830.09;1733658;81;21085;-68
2022/09/18 11:16:01;;;;;;;30.43;21.10;;;;;;;14.44;100.00;97827.28;1733944;82;22072;-68
2022/09/18 11:18:30;;;;;;;31.12;23.57;;;;;;;14.42;100.00;97823.96;1734247;82;21538;-69
2022/09/18 11:21:00;;;;;;;33.20;22.87;;;;;;;14.44;100.00;97823.31;1713423;82;21062;-68
2022/09/18 11:23:31;;;;;;;33.08;23.10;;;;;;;14.45;100.00;97813.09;1733734;82;21115;-68
2022/09/18 11:26:20;;;;;;;34.80;25.20;;;;;;;14.46;100.00;97812.09;1733938;82;21046;-68
2022/09/18 11:29:07;;;;;;;33.18;22.62;;;;;;;14.44;100.00;97795.50;1733930;82;21080;-68
2022/09/18 11:31:43;;;;;;;31.68;22.30;;;;;;;14.43;100.00;97785.90;1732865;82;21102;-69
2022/09/18 11:34:30;;;;;;;38.08;24.47;;;;;;;14.44;100.00;97788.88;1734392;82;21511;-69
2022/09/18 11:37:01;;;;;;;35.35;23.90;;;;;;;14.51;100.00;97775.09;1732987;82;21145;-70
2022/09/18 11:39:36;;;;;;;39.92;24.67;;;;;;;14.55;100.00;97781.83;1734243;82;21022;-69
2022/09/18 11:42:10;;;;;;;37.25;25.32;;;;;;;14.63;100.00;97780.63;1733961;82;21031;-68
2022/09/18 11:44:38;;;;;;;38.90;26.00;;;;;;;14.63;100.00;97770.03;1734049;82;21034;-68
2022/09/18 11:47:32;;;;;;;38.25;25.35;;;;;;;14.71;100.00;97767.53;1734227;82;21070;-68
2022/09/18 11:50:19;;;;;;;35.40;23.50;;;;;;;14.70;100.00;97772.50;1734214;82;21294;-69